createdAt,value
2023-03-21T00:00:01.802Z,7.18
2023-03-21T00:05:15.087Z,10.43
2023-03-21T00:10:29.759Z,7.95
2023-03-21T00:16:03.783Z,8.38
2023-03-21T00:26:34.224Z,9.15
2023-03-21T00:31:41.255Z,6.88
2023-03-21T00:36:44.247Z,6.40
2023-03-21T00:41:46.309Z,6.33
2023-03-21T00:47:04.250Z,7.40
2023-03-21T00:52:27.369Z,7.70
2023-03-21T01:03:08.532Z,8.27
2023-03-21T01:08:25.398Z,7.93
2023-03-21T01:13:30.613Z,7.15
2023-03-21T01:18:35.714Z,6.22
2023-03-21T01:23:42.819Z,7.90
2023-03-21T01:28:45.935Z,5.45
2023-03-21T01:33:48.092Z,5.43
2023-03-21T01:38:50.711Z,6.50
2023-03-21T01:43:53.974Z,5.53
2023-03-21T01:49:05.104Z,5.18
2023-03-21T01:54:10.456Z,6.40
2023-03-21T01:59:17.685Z,6.82
2023-03-21T02:04:22.619Z,7.68
2023-03-21T02:09:28.527Z,8.73
2023-03-21T02:14:38.033Z,9.70
2023-03-21T02:20:09.252Z,9.02
2023-03-21T02:25:43.593Z,8.63
2023-03-21T02:36:28.759Z,6.43
2023-03-21T02:41:40.152Z,8.25
2023-03-21T02:46:49.069Z,8.85
2023-03-21T02:52:05.453Z,7.50
2023-03-21T02:57:19.077Z,8.50
2023-03-21T03:02:27.466Z,8.48
2023-03-21T03:07:44.594Z,5.78
2023-03-21T03:12:57.865Z,5.35
2023-03-21T03:18:08.562Z,6.20
2023-03-21T03:23:21.353Z,8.60
2023-03-21T03:28:30.669Z,5.57
2023-03-21T03:33:38.257Z,5.45
2023-03-21T03:38:42.364Z,6.03
2023-03-21T03:43:49.559Z,5.75
2023-03-21T03:49:16.814Z,5.18
2023-03-21T03:54:28.800Z,4.43
2023-03-21T03:59:35.561Z,4.68
2023-03-21T04:04:37.526Z,5.60
2023-03-21T04:09:44.829Z,4.57
2023-03-21T04:14:48.237Z,4.97
2023-03-21T04:19:57.707Z,5.53
2023-03-21T04:25:07.663Z,7.13
2023-03-21T04:30:12.362Z,5.95
2023-03-21T04:35:15.578Z,7.63
2023-03-21T04:40:19.159Z,5.87
2023-03-21T04:50:24.504Z,6.30
2023-03-21T04:55:28.304Z,6.72
2023-03-21T05:00:39.283Z,5.05
2023-03-21T05:05:41.585Z,6.13
2023-03-21T05:10:43.888Z,4.55
2023-03-21T05:15:46.015Z,5.20
2023-03-21T05:20:54.389Z,5.68
2023-03-21T05:25:56.324Z,4.22
2023-03-21T05:31:05.369Z,5.50
2023-03-21T05:36:09.979Z,5.50
2023-03-21T05:41:15.078Z,4.32
2023-03-21T05:46:17.172Z,4.65
2023-03-21T05:51:23.274Z,5.13
2023-03-21T05:56:26.438Z,8.25
2023-03-21T06:11:36.437Z,17.77
2023-03-21T06:11:56.945Z,4.20
2023-03-21T06:12:08.963Z,2.60
2023-03-21T06:12:20.892Z,296.63
2023-03-21T06:12:35.204Z,739.15
2023-03-21T06:12:47.114Z,686.53
2023-03-21T06:12:59.072Z,11.50
2023-03-21T06:13:11.035Z,4.43
2023-03-21T06:13:22.977Z,4.40
2023-03-21T06:13:34.879Z,5.10
2023-03-21T06:13:46.751Z,4.32
2023-03-21T06:14:01.250Z,3.42
2023-03-21T06:14:13.155Z,3.60
2023-03-21T06:14:25.638Z,4.35
2023-03-21T06:14:37.649Z,4.95
2023-03-21T06:14:50.480Z,4.88
2023-03-21T06:15:04.611Z,4.10
2023-03-21T06:15:16.954Z,4.50
2023-03-21T06:15:29.115Z,4.63
2023-03-21T06:25:45.261Z,2.83
2023-03-21T06:45:09.990Z,4.20
2023-03-21T06:55:12.140Z,3.92
2023-03-21T07:05:17.370Z,31.33
2023-03-21T07:15:19.417Z,14.10
2023-03-21T07:25:22.458Z,16.38
2023-03-21T07:35:24.498Z,11.68
2023-03-21T07:45:27.700Z,12.52
2023-03-21T07:55:40.246Z,10.05
2023-03-21T08:05:42.753Z,9.30
2023-03-21T08:15:45.802Z,9.07
2023-03-21T08:25:58.057Z,8.90
2023-03-21T08:36:01.180Z,9.95
2023-03-21T08:46:09.274Z,8.85
2023-03-21T08:56:13.317Z,7.93
2023-03-21T09:06:17.685Z,8.20
2023-03-21T09:16:28.773Z,6.68
2023-03-21T09:26:31.472Z,6.75
2023-03-21T09:36:44.401Z,7.18
2023-03-21T09:47:09.491Z,7.25
2023-03-21T09:57:23.689Z,6.22
2023-03-21T10:07:31.239Z,8.77
2023-03-21T10:18:10.547Z,10.98
2023-03-21T10:28:27.286Z,8.93
2023-03-21T10:38:31.551Z,8.68
2023-03-21T10:48:39.979Z,7.38
2023-03-21T10:58:47.256Z,5.43
2023-03-21T11:08:56.976Z,4.57
2023-03-21T11:19:16.385Z,4.22
2023-03-21T11:29:24.487Z,4.93
2023-03-21T11:39:41.344Z,5.60
2023-03-21T11:49:58.409Z,4.65
2023-03-21T12:00:26.562Z,4.18
2023-03-21T12:10:47.930Z,3.03
2023-03-21T12:21:21.136Z,4.47
2023-03-21T12:32:08.685Z,3.75
2023-03-21T12:42:35.184Z,5.03
2023-03-21T12:52:48.835Z,5.00
2023-03-21T13:03:21.059Z,6.18
2023-03-21T13:13:33.601Z,5.57
2023-03-21T13:23:38.307Z,5.30
2023-03-21T13:33:45.315Z,5.38
2023-03-21T13:44:08.998Z,4.75
2023-03-21T13:54:14.186Z,4.20
2023-03-21T14:04:26.339Z,3.08
2023-03-21T14:14:44.494Z,3.03
2023-03-21T14:25:10.209Z,3.58
2023-03-21T14:45:23.341Z,3.17
2023-03-21T14:55:26.096Z,4.43
2023-03-21T15:05:46.437Z,5.40
2023-03-21T15:16:00.326Z,4.35
2023-03-21T15:26:04.364Z,6.22
2023-03-21T15:36:10.363Z,5.72
2023-03-21T15:46:33.425Z,5.53
2023-03-21T15:56:36.566Z,5.35
2023-03-21T16:06:53.669Z,7.97
2023-03-21T16:16:58.390Z,7.07
2023-03-21T16:27:00.794Z,9.10
2023-03-21T16:37:03.620Z,14.02
2023-03-21T16:47:15.831Z,9.18
2023-03-21T16:57:30.466Z,8.77
2023-03-21T17:07:44.293Z,9.90
2023-03-21T17:17:50.483Z,15.27
2023-03-21T17:27:54.340Z,17.33
2023-03-21T17:37:59.162Z,15.90
2023-03-21T17:48:03.212Z,17.48
2023-03-21T17:58:13.284Z,23.95
2023-03-21T18:08:27.345Z,25.48
2023-03-21T18:18:32.175Z,27.27
2023-03-21T18:28:39.735Z,46.17
2023-03-21T18:38:46.798Z,63.22
2023-03-21T18:49:07.888Z,67.80
2023-03-21T18:59:23.080Z,46.08
2023-03-21T19:09:32.459Z,54.33
2023-03-21T19:19:36.834Z,54.67
2023-03-21T19:29:57.004Z,58.67
2023-03-21T19:40:10.819Z,64.35
2023-03-21T20:00:38.449Z,63.67
2023-03-21T20:10:44.408Z,70.13
2023-03-21T20:20:53.287Z,69.68
2023-03-21T20:31:05.887Z,78.95
2023-03-21T20:41:15.878Z,84.68
2023-03-21T21:01:59.874Z,84.97
2023-03-21T21:12:07.121Z,127.90
2023-03-21T21:32:17.019Z,213.07
2023-03-21T21:42:20.180Z,216.60
2023-03-21T21:52:24.436Z,181.88
2023-03-21T22:02:50.281Z,159.70
2023-03-21T22:13:02.269Z,146.57
2023-03-21T22:23:05.239Z,136.07
2023-03-21T22:33:09.878Z,129.40
2023-03-21T22:43:12.373Z,139.57
2023-03-21T22:53:16.409Z,125.35
2023-03-21T23:03:18.673Z,117.43
2023-03-21T23:13:26.918Z,117.18
2023-03-21T23:23:36.968Z,102.68
2023-03-21T23:33:39.113Z,103.22
2023-03-21T23:43:42.774Z,94.22
2023-03-21T23:53:56.907Z,89.15
